Terminal Aerodrome Forecast
Issued by NWS

Home | Current Version | Previous Version | Text Only | Print | Product List | Glossary On
Versions: 1 2 3 4 5 6 7 8 9 10 11 12 13 14 15 16 17 18 19 20 21 22 23 24 25 26 27 28 29 30
418
FTUS43 KABR 231721
TAFATY
TAF
KATY 231721Z 2318/2418 29005KT P6SM OVC006
     FM232000 14005KT P6SM OVC008
     FM240900 10009KT 3SM -SN OVC003
     FM241500 08013G20KT 3/4SM -SN OVC003=

USA.gov is the U.S. government's official web portal to all federal, state and local government web resources and services.